Terminal Aerodrome Forecast
Issued by NWS Binghamton, NY

Home | Current Version | Previous Version | Text Only | Print | Product List | Glossary On
Versions: 1 2 3 4 5 6 7 8 9 10 11 12 13 14 15 16 17
257
FTUS41 KBGM 221824 AAA
TAFSYR
TAF AMD
KSYR 221824Z 2218/2318 21013G23KT P6SM SCT040 OVC150
      TEMPO 2219/2221 VRB50KT 2SM +TSRAGR SCT008 BKN015CB
     FM222100 24015G25KT P6SM -SHRA BKN035 OVC090
     FM230200 25013KT P6SM BKN035
     FM230400 27010KT P6SM SCT100
     FM231400 27013G23KT P6SM BKN050=

USA.gov is the U.S. government's official web portal to all federal, state and local government web resources and services.